sensor_id;sensor_type;location;lat;lon;timestamp;pressure;altitude;pressure_sealevel;temperature;humidity
47913;BME280;33676;51.006;17.180;2023-12-20T00:02:17;99666.02;;;6.95;92.93
47913;BME280;33676;51.006;17.180;2023-12-20T00:04:45;99663.95;;;6.95;93.02
47913;BME280;33676;51.006;17.180;2023-12-20T00:07:12;99665.38;;;6.96;93.21
47913;BME280;33676;51.006;17.180;2023-12-20T00:09:39;99665.45;;;6.98;93.27
47913;BME280;33676;51.006;17.180;2023-12-20T00:12:07;99666.30;;;6.98;93.21
47913;BME280;33676;51.006;17.180;2023-12-20T00:14:34;99660.48;;;6.99;93.32
47913;BME280;33676;51.006;17.180;2023-12-20T00:17:01;99663.54;;;7.00;93.34
47913;BME280;33676;51.006;17.180;2023-12-20T00:19:28;99659.82;;;7.02;93.33
47913;BME280;33676;51.006;17.180;2023-12-20T00:21:55;99654.91;;;7.02;93.43
47913;BME280;33676;51.006;17.180;2023-12-20T00:24:22;99662.07;;;7.02;93.49
47913;BME280;33676;51.006;17.180;2023-12-20T00:26:49;99666.48;;;7.01;93.61
47913;BME280;33676;51.006;17.180;2023-12-20T00:29:16;99669.73;;;7.02;93.67
47913;BME280;33676;51.006;17.180;2023-12-20T00:31:44;99667.44;;;7.02;93.74
47913;BME280;33676;51.006;17.180;2023-12-20T00:34:11;99664.09;;;7.02;93.83
47913;BME280;33676;51.006;17.180;2023-12-20T00:36:39;99657.23;;;7.03;93.92
47913;BME280;33676;51.006;17.180;2023-12-20T00:41:15;99650.30;;;7.08;94.20
47913;BME280;33676;51.006;17.180;2023-12-20T00:43:44;99654.55;;;7.07;94.12
47913;BME280;33676;51.006;17.180;2023-12-20T00:46:12;99649.37;;;7.07;94.16
47913;BME280;33676;51.006;17.180;2023-12-20T00:48:41;99648.92;;;7.08;94.32
47913;BME280;33676;51.006;17.180;2023-12-20T00:51:11;99650.46;;;7.08;94.31
47913;BME280;33676;51.006;17.180;2023-12-20T00:53:39;99644.42;;;7.08;94.28
47913;BME280;33676;51.006;17.180;2023-12-20T00:56:08;99643.09;;;7.07;94.29
47913;BME280;33676;51.006;17.180;2023-12-20T00:58:36;99643.91;;;7.08;94.51
47913;BME280;33676;51.006;17.180;2023-12-20T01:01:05;99647.27;;;7.07;94.50
47913;BME280;33676;51.006;17.180;2023-12-20T01:03:34;99642.92;;;7.07;94.54
47913;BME280;33676;51.006;17.180;2023-12-20T01:06:03;99639.65;;;7.06;94.52
47913;BME280;33676;51.006;17.180;2023-12-20T01:08:33;99638.83;;;7.06;94.59
47913;BME280;33676;51.006;17.180;2023-12-20T01:11:06;99642.30;;;7.06;94.76
47913;BME280;33676;51.006;17.180;2023-12-20T01:13:34;99638.39;;;7.05;94.65
47913;BME280;33676;51.006;17.180;2023-12-20T01:16:03;99631.02;;;7.03;94.71
47913;BME280;33676;51.006;17.180;2023-12-20T01:18:32;99637.85;;;7.02;94.68
47913;BME280;33676;51.006;17.180;2023-12-20T01:21:04;99631.34;;;7.01;94.75
47913;BME280;33676;51.006;17.180;2023-12-20T01:23:33;99631.73;;;7.01;94.78
47913;BME280;33676;51.006;17.180;2023-12-20T01:26:01;99625.59;;;6.99;94.88
47913;BME280;33676;51.006;17.180;2023-12-20T01:28:31;99619.80;;;6.97;94.82
47913;BME280;33676;51.006;17.180;2023-12-20T01:30:59;99625.95;;;6.96;94.82
47913;BME280;33676;51.006;17.180;2023-12-20T01:33:28;99625.98;;;6.96;94.91
47913;BME280;33676;51.006;17.180;2023-12-20T01:35:56;99620.55;;;6.94;94.89
47913;BME280;33676;51.006;17.180;2023-12-20T01:38:25;99614.02;;;6.93;95.05
47913;BME280;33676;51.006;17.180;2023-12-20T01:40:53;99611.48;;;6.92;94.98
47913;BME280;33676;51.006;17.180;2023-12-20T01:43:22;99613.29;;;6.91;95.04
47913;BME280;33676;51.006;17.180;2023-12-20T01:45:56;99608.81;;;6.88;94.99
47913;BME280;33676;51.006;17.180;2023-12-20T01:48:27;99607.05;;;6.86;95.02
47913;BME280;33676;51.006;17.180;2023-12-20T01:50:57;99604.60;;;6.84;95.21
47913;BME280;33676;51.006;17.180;2023-12-20T01:53:28;99605.27;;;6.82;95.31
47913;BME280;33676;51.006;17.180;2023-12-20T01:55:58;99601.10;;;6.80;95.32
47913;BME280;33676;51.006;17.180;2023-12-20T01:58:27;99591.02;;;6.78;95.42
47913;BME280;33676;51.006;17.180;2023-12-20T02:01:01;99589.67;;;6.77;95.54
47913;BME280;33676;51.006;17.180;2023-12-20T02:03:30;99593.16;;;6.77;95.67
47913;BME280;33676;51.006;17.180;2023-12-20T02:05:58;99597.11;;;6.75;95.78
47913;BME280;33676;51.006;17.180;2023-12-20T02:08:27;99592.89;;;6.74;95.77
47913;BME280;33676;51.006;17.180;2023-12-20T02:10:56;99588.97;;;6.73;95.86
47913;BME280;33676;51.006;17.180;2023-12-20T02:13:24;99584.35;;;6.72;95.88
47913;BME280;33676;51.006;17.180;2023-12-20T02:15:55;99576.77;;;6.71;95.89
47913;BME280;33676;51.006;17.180;2023-12-20T02:18:23;99586.36;;;6.71;96.08
47913;BME280;33676;51.006;17.180;2023-12-20T02:20:52;99590.15;;;6.71;96.22
47913;BME280;33676;51.006;17.180;2023-12-20T02:23:21;99589.15;;;6.70;96.20
47913;BME280;33676;51.006;17.180;2023-12-20T02:25:50;99582.16;;;6.69;96.33
47913;BME280;33676;51.006;17.180;2023-12-20T02:28:19;99578.92;;;6.68;96.33
47913;BME280;33676;51.006;17.180;2023-12-20T02:30:47;99574.95;;;6.68;96.32
47913;BME280;33676;51.006;17.180;2023-12-20T02:33:18;99574.16;;;6.66;96.41
47913;BME280;33676;51.006;17.180;2023-12-20T02:35:46;99569.61;;;6.64;96.50
47913;BME280;33676;51.006;17.180;2023-12-20T02:38:16;99569.67;;;6.63;96.70
47913;BME280;33676;51.006;17.180;2023-12-20T02:40:45;99563.15;;;6.62;96.59
47913;BME280;33676;51.006;17.180;2023-12-20T02:43:17;99569.71;;;6.61;96.65
47913;BME280;33676;51.006;17.180;2023-12-20T02:45:46;99572.48;;;6.58;96.63
47913;BME280;33676;51.006;17.180;2023-12-20T02:48:14;99567.48;;;6.58;96.65
47913;BME280;33676;51.006;17.180;2023-12-20T02:50:43;99563.39;;;6.57;96.85
47913;BME280;33676;51.006;17.180;2023-12-20T02:53:11;99569.31;;;6.56;96.89
47913;BME280;33676;51.006;17.180;2023-12-20T02:55:40;99558.15;;;6.55;96.98
47913;BME280;33676;51.006;17.180;2023-12-20T02:58:08;99554.08;;;6.54;97.00
47913;BME280;33676;51.006;17.180;2023-12-20T03:00:37;99545.45;;;6.53;97.11
47913;BME280;33676;51.006;17.180;2023-12-20T03:03:05;99541.52;;;6.52;97.25
47913;BME280;33676;51.006;17.180;2023-12-20T03:05:34;99544.88;;;6.51;97.21
47913;BME280;33676;51.006;17.180;2023-12-20T03:08:03;99544.42;;;6.50;97.30
47913;BME280;33676;51.006;17.180;2023-12-20T03:10:31;99543.26;;;6.50;97.39
47913;BME280;33676;51.006;17.180;2023-12-20T03:13:00;99542.26;;;6.49;97.30
47913;BME280;33676;51.006;17.180;2023-12-20T03:15:28;99541.79;;;6.48;97.38
47913;BME280;33676;51.006;17.180;2023-12-20T03:17:57;99543.03;;;6.48;97.41
47913;BME280;33676;51.006;17.180;2023-12-20T03:20:32;99546.39;;;6.47;97.60
47913;BME280;33676;51.006;17.180;2023-12-20T03:23:03;99545.48;;;6.45;97.57
47913;BME280;33676;51.006;17.180;2023-12-20T03:25:32;99551.30;;;6.44;97.83
47913;BME280;33676;51.006;17.180;2023-12-20T03:28:00;99553.98;;;6.43;97.83
47913;BME280;33676;51.006;17.180;2023-12-20T03:30:29;99551.65;;;6.42;97.81
47913;BME280;33676;51.006;17.180;2023-12-20T03:32:58;99549.06;;;6.42;97.88
47913;BME280;33676;51.006;17.180;2023-12-20T03:35:26;99545.63;;;6.41;98.12
47913;BME280;33676;51.006;17.180;2023-12-20T03:37:54;99549.79;;;6.41;98.28
47913;BME280;33676;51.006;17.180;2023-12-20T03:40:23;99552.19;;;6.41;98.32
47913;BME280;33676;51.006;17.180;2023-12-20T03:42:52;99550.34;;;6.40;98.35
47913;BME280;33676;51.006;17.180;2023-12-20T03:45:20;99557.45;;;6.40;98.26
47913;BME280;33676;51.006;17.180;2023-12-20T03:47:49;99556.23;;;6.41;98.47
47913;BME280;33676;51.006;17.180;2023-12-20T03:50:18;99557.29;;;6.40;98.59
47913;BME280;33676;51.006;17.180;2023-12-20T03:52:46;99558.66;;;6.40;98.52
47913;BME280;33676;51.006;17.180;2023-12-20T03:55:15;99554.90;;;6.40;98.57
47913;BME280;33676;51.006;17.180;2023-12-20T03:57:44;99555.11;;;6.39;98.53
47913;BME280;33676;51.006;17.180;2023-12-20T04:00:13;99554.45;;;6.39;98.60
47913;BME280;33676;51.006;17.180;2023-12-20T04:02:42;99549.47;;;6.38;98.62
47913;BME280;33676;51.006;17.180;2023-12-20T04:05:11;99549.20;;;6.37;98.47
47913;BME280;33676;51.006;17.180;2023-12-20T04:07:39;99552.56;;;6.36;98.57
47913;BME280;33676;51.006;17.180;2023-12-20T04:10:08;99551.09;;;6.35;98.63
47913;BME280;33676;51.006;17.180;2023-12-20T04:12:37;99558.42;;;6.34;98.81
47913;BME280;33676;51.006;17.180;2023-12-20T04:15:06;99557.65;;;6.33;98.90
47913;BME280;33676;51.006;17.180;2023-12-20T04:17:38;99553.77;;;6.31;98.91
47913;BME280;33676;51.006;17.180;2023-12-20T04:20:07;99549.23;;;6.29;98.93
47913;BME280;33676;51.006;17.180;2023-12-20T04:22:36;99556.96;;;6.28;98.99
47913;BME280;33676;51.006;17.180;2023-12-20T04:25:05;99558.05;;;6.25;98.96
47913;BME280;33676;51.006;17.180;2023-12-20T04:27:33;99557.09;;;6.22;99.08
47913;BME280;33676;51.006;17.180;2023-12-20T04:30:02;99555.15;;;6.18;99.14
47913;BME280;33676;51.006;17.180;2023-12-20T04:32:32;99557.40;;;6.13;99.19
47913;BME280;33676;51.006;17.180;2023-12-20T04:35:00;99559.23;;;6.09;99.46
47913;BME280;33676;51.006;17.180;2023-12-20T04:37:29;99559.61;;;6.04;99.41
47913;BME280;33676;51.006;17.180;2023-12-20T04:39:57;99555.33;;;6.01;99.57
47913;BME280;33676;51.006;17.180;2023-12-20T04:42:26;99554.70;;;5.97;99.73
47913;BME280;33676;51.006;17.180;2023-12-20T04:44:54;99552.00;;;5.93;99.67
47913;BME280;33676;51.006;17.180;2023-12-20T04:47:23;99554.52;;;5.89;99.84
47913;BME280;33676;51.006;17.180;2023-12-20T04:49:51;99555.27;;;5.85;99.93
47913;BME280;33676;51.006;17.180;2023-12-20T04:52:20;99552.22;;;5.82;99.93
47913;BME280;33676;51.006;17.180;2023-12-20T04:54:49;99555.02;;;5.79;99.99
47913;BME280;33676;51.006;17.180;2023-12-20T04:57:17;99554.35;;;5.77;100.00
47913;BME280;33676;51.006;17.180;2023-12-20T04:59:46;99556.15;;;5.73;100.00
47913;BME280;33676;51.006;17.180;2023-12-20T05:02:14;99553.86;;;5.69;100.00
47913;BME280;33676;51.006;17.180;2023-12-20T05:04:43;99550.25;;;5.66;100.00
47913;BME280;33676;51.006;17.180;2023-12-20T05:07:11;99542.88;;;5.62;100.00
47913;BME280;33676;51.006;17.180;2023-12-20T05:09:40;99542.09;;;5.59;100.00
47913;BME280;33676;51.006;17.180;2023-12-20T05:12:08;99542.38;;;5.55;100.00
47913;BME280;33676;51.006;17.180;2023-12-20T05:14:37;99548.42;;;5.50;100.00
47913;BME280;33676;51.006;17.180;2023-12-20T05:17:05;99549.73;;;5.46;100.00
47913;BME280;33676;51.006;17.180;2023-12-20T05:19:33;99545.63;;;5.43;100.00
47913;BME280;33676;51.006;17.180;2023-12-20T05:22:05;99546.84;;;5.40;100.00
47913;BME280;33676;51.006;17.180;2023-12-20T05:24:33;99545.90;;;5.39;100.00
47913;BME280;33676;51.006;17.180;2023-12-20T05:27:02;99546.52;;;5.37;100.00
47913;BME280;33676;51.006;17.180;2023-12-20T05:29:31;99551.55;;;5.37;100.00
47913;BME280;33676;51.006;17.180;2023-12-20T05:31:59;99551.20;;;5.37;100.00
47913;BME280;33676;51.006;17.180;2023-12-20T05:34:28;99551.20;;;5.38;100.00
47913;BME280;33676;51.006;17.180;2023-12-20T05:36:58;99555.40;;;5.37;100.00
47913;BME280;33676;51.006;17.180;2023-12-20T05:39:26;99554.40;;;5.36;100.00
47913;BME280;33676;51.006;17.180;2023-12-20T05:41:55;99560.28;;;5.36;100.00
47913;BME280;33676;51.006;17.180;2023-12-20T05:44:23;99556.01;;;5.35;100.00
47913;BME280;33676;51.006;17.180;2023-12-20T05:46:51;99560.68;;;5.35;100.00
47913;BME280;33676;51.006;17.180;2023-12-20T05:49:20;99559.31;;;5.35;100.00
47913;BME280;33676;51.006;17.180;2023-12-20T05:51:50;99564.92;;;5.34;100.00
47913;BME280;33676;51.006;17.180;2023-12-20T05:54:19;99560.66;;;5.33;100.00
47913;BME280;33676;51.006;17.180;2023-12-20T05:56:48;99555.34;;;5.32;100.00
47913;BME280;33676;51.006;17.180;2023-12-20T05:59:16;99552.11;;;5.31;100.00
47913;BME280;33676;51.006;17.180;2023-12-20T06:01:45;99551.10;;;5.31;100.00
47913;BME280;33676;51.006;17.180;2023-12-20T06:04:13;99552.49;;;5.31;100.00
47913;BME280;33676;51.006;17.180;2023-12-20T06:06:42;99548.71;;;5.30;100.00
47913;BME280;33676;51.006;17.180;2023-12-20T06:09:12;99547.66;;;5.30;100.00
47913;BME280;33676;51.006;17.180;2023-12-20T06:11:40;99548.20;;;5.30;100.00
47913;BME280;33676;51.006;17.180;2023-12-20T06:14:09;99546.98;;;5.30;100.00
47913;BME280;33676;51.006;17.180;2023-12-20T06:16:37;99549.10;;;5.30;100.00
47913;BME280;33676;51.006;17.180;2023-12-20T06:19:05;99548.14;;;5.28;100.00
47913;BME280;33676;51.006;17.180;2023-12-20T06:22:04;99552.30;;;5.31;100.00
47913;BME280;33676;51.006;17.180;2023-12-20T06:24:32;99554.36;;;5.29;100.00
47913;BME280;33676;51.006;17.180;2023-12-20T06:27:03;99550.56;;;5.28;100.00
47913;BME280;33676;51.006;17.180;2023-12-20T06:29:31;99549.20;;;5.28;100.00
47913;BME280;33676;51.006;17.180;2023-12-20T06:32:00;99548.93;;;5.27;100.00
47913;BME280;33676;51.006;17.180;2023-12-20T06:34:29;99546.90;;;5.26;100.00
47913;BME280;33676;51.006;17.180;2023-12-20T06:36:57;99547.62;;;5.26;100.00
47913;BME280;33676;51.006;17.180;2023-12-20T06:39:26;99553.05;;;5.25;100.00
47913;BME280;33676;51.006;17.180;2023-12-20T06:41:54;99553.25;;;5.24;100.00
47913;BME280;33676;51.006;17.180;2023-12-20T06:44:23;99559.27;;;5.23;100.00
47913;BME280;33676;51.006;17.180;2023-12-20T06:46:51;99558.49;;;5.21;100.00
47913;BME280;33676;51.006;17.180;2023-12-20T06:49:20;99559.42;;;5.21;100.00
47913;BME280;33676;51.006;17.180;2023-12-20T06:51:48;99559.67;;;5.20;100.00
47913;BME280;33676;51.006;17.180;2023-12-20T06:54:17;99566.38;;;5.18;100.00
47913;BME280;33676;51.006;17.180;2023-12-20T06:56:45;99561.86;;;5.16;100.00
47913;BME280;33676;51.006;17.180;2023-12-20T06:59:14;99564.77;;;5.14;100.00
47913;BME280;33676;51.006;17.180;2023-12-20T07:01:47;99566.10;;;5.12;100.00
47913;BME280;33676;51.006;17.180;2023-12-20T07:04:16;99567.95;;;5.10;100.00
47913;BME280;33676;51.006;17.180;2023-12-20T07:06:50;99566.28;;;5.09;100.00
47913;BME280;33676;51.006;17.180;2023-12-20T07:09:29;99562.91;;;5.08;100.00
47913;BME280;33676;51.006;17.180;2023-12-20T07:11:57;99563.18;;;5.06;100.00
47913;BME280;33676;51.006;17.180;2023-12-20T07:14:26;99567.94;;;5.05;100.00
47913;BME280;33676;51.006;17.180;2023-12-20T07:16:56;99567.52;;;4.99;100.00
47913;BME280;33676;51.006;17.180;2023-12-20T07:19:24;99572.00;;;4.91;100.00
47913;BME280;33676;51.006;17.180;2023-12-20T07:21:53;99576.52;;;4.83;100.00
47913;BME280;33676;51.006;17.180;2023-12-20T07:24:21;99574.65;;;4.77;100.00
47913;BME280;33676;51.006;17.180;2023-12-20T07:26:50;99574.27;;;4.75;100.00
47913;BME280;33676;51.006;17.180;2023-12-20T07:29:19;99576.61;;;4.74;100.00
47913;BME280;33676;51.006;17.180;2023-12-20T07:31:47;99579.83;;;4.75;100.00
47913;BME280;33676;51.006;17.180;2023-12-20T07:34:16;99580.98;;;4.78;100.00
47913;BME280;33676;51.006;17.180;2023-12-20T07:36:44;99580.05;;;4.82;100.00
47913;BME280;33676;51.006;17.180;2023-12-20T07:39:14;99575.09;;;4.83;100.00
47913;BME280;33676;51.006;17.180;2023-12-20T07:41:42;99576.67;;;4.85;100.00
47913;BME280;33676;51.006;17.180;2023-12-20T07:44:14;99578.16;;;4.87;100.00
47913;BME280;33676;51.006;17.180;2023-12-20T07:46:44;99581.59;;;4.87;100.00
47913;BME280;33676;51.006;17.180;2023-12-20T07:49:12;99586.00;;;4.88;100.00
47913;BME280;33676;51.006;17.180;2023-12-20T07:51:41;99584.90;;;4.90;100.00
47913;BME280;33676;51.006;17.180;2023-12-20T07:54:09;99584.91;;;4.90;100.00
47913;BME280;33676;51.006;17.180;2023-12-20T07:56:38;99592.77;;;4.91;100.00
47913;BME280;33676;51.006;17.180;2023-12-20T07:59:08;99591.14;;;4.92;100.00
47913;BME280;33676;51.006;17.180;2023-12-20T08:01:49;99592.13;;;4.93;100.00
47913;BME280;33676;51.006;17.180;2023-12-20T08:04:18;99589.71;;;4.93;100.00
47913;BME280;33676;51.006;17.180;2023-12-20T08:06:47;99589.57;;;4.92;100.00
47913;BME280;33676;51.006;17.180;2023-12-20T08:09:16;99586.81;;;4.87;100.00
47913;BME280;33676;51.006;17.180;2023-12-20T08:11:48;99583.02;;;4.81;100.00
47913;BME280;33676;51.006;17.180;2023-12-20T08:14:17;99583.98;;;4.75;100.00
47913;BME280;33676;51.006;17.180;2023-12-20T08:16:45;99579.96;;;4.68;100.00
47913;BME280;33676;51.006;17.180;2023-12-20T08:19:14;99582.68;;;4.71;100.00
47913;BME280;33676;51.006;17.180;2023-12-20T08:21:42;99588.97;;;4.75;100.00
47913;BME280;33676;51.006;17.180;2023-12-20T08:24:11;99586.85;;;4.79;100.00
47913;BME280;33676;51.006;17.180;2023-12-20T08:26:40;99582.11;;;4.82;100.00
47913;BME280;33676;51.006;17.180;2023-12-20T08:29:08;99585.05;;;4.85;100.00
47913;BME280;33676;51.006;17.180;2023-12-20T08:31:37;99591.47;;;4.87;100.00
47913;BME280;33676;51.006;17.180;2023-12-20T08:34:05;99591.33;;;4.89;100.00
47913;BME280;33676;51.006;17.180;2023-12-20T08:36:36;99594.84;;;4.91;100.00
47913;BME280;33676;51.006;17.180;2023-12-20T08:39:05;99598.36;;;4.93;100.00
47913;BME280;33676;51.006;17.180;2023-12-20T08:41:35;99593.13;;;4.93;100.00
47913;BME280;33676;51.006;17.180;2023-12-20T08:44:05;99593.25;;;4.94;100.00
47913;BME280;33676;51.006;17.180;2023-12-20T08:46:33;99601.38;;;4.97;100.00
47913;BME280;33676;51.006;17.180;2023-12-20T08:49:02;99608.95;;;4.98;100.00
47913;BME280;33676;51.006;17.180;2023-12-20T08:51:31;99605.41;;;4.99;100.00
47913;BME280;33676;51.006;17.180;2023-12-20T08:53:59;99612.48;;;4.99;100.00
47913;BME280;33676;51.006;17.180;2023-12-20T08:56:28;99614.95;;;4.96;100.00
47913;BME280;33676;51.006;17.180;2023-12-20T08:58:56;99607.80;;;4.92;100.00
47913;BME280;33676;51.006;17.180;2023-12-20T09:01:25;99609.37;;;4.86;100.00
47913;BME280;33676;51.006;17.180;2023-12-20T09:03:53;99614.34;;;4.87;100.00
47913;BME280;33676;51.006;17.180;2023-12-20T09:06:22;99616.33;;;4.91;100.00
47913;BME280;33676;51.006;17.180;2023-12-20T09:08:51;99613.84;;;4.94;100.00
47913;BME280;33676;51.006;17.180;2023-12-20T09:11:19;99611.73;;;4.98;100.00
47913;BME280;33676;51.006;17.180;2023-12-20T09:13:48;99606.09;;;4.99;100.00
47913;BME280;33676;51.006;17.180;2023-12-20T09:16:17;99611.89;;;5.01;100.00
47913;BME280;33676;51.006;17.180;2023-12-20T09:18:45;99608.02;;;5.01;100.00
47913;BME280;33676;51.006;17.180;2023-12-20T09:21:14;99612.20;;;5.04;100.00
47913;BME280;33676;51.006;17.180;2023-12-20T09:23:43;99613.57;;;5.07;100.00
47913;BME280;33676;51.006;17.180;2023-12-20T09:26:11;99618.64;;;5.08;100.00
47913;BME280;33676;51.006;17.180;2023-12-20T09:28:39;99618.52;;;5.10;100.00
47913;BME280;33676;51.006;17.180;2023-12-20T09:31:09;99621.02;;;5.12;100.00
47913;BME280;33676;51.006;17.180;2023-12-20T09:33:37;99623.43;;;5.12;100.00
47913;BME280;33676;51.006;17.180;2023-12-20T09:36:06;99613.16;;;5.13;100.00
47913;BME280;33676;51.006;17.180;2023-12-20T09:38:35;99613.80;;;5.13;100.00
47913;BME280;33676;51.006;17.180;2023-12-20T09:41:04;99619.55;;;5.11;100.00
47913;BME280;33676;51.006;17.180;2023-12-20T09:43:37;99615.85;;;5.06;100.00
47913;BME280;33676;51.006;17.180;2023-12-20T09:46:07;99616.71;;;5.04;100.00
47913;BME280;33676;51.006;17.180;2023-12-20T09:48:36;99610.48;;;5.04;100.00
47913;BME280;33676;51.006;17.180;2023-12-20T09:51:05;99618.25;;;5.09;100.00
47913;BME280;33676;51.006;17.180;2023-12-20T09:53:36;99608.30;;;5.15;100.00
47913;BME280;33676;51.006;17.180;2023-12-20T09:56:05;99606.96;;;5.22;100.00
47913;BME280;33676;51.006;17.180;2023-12-20T09:58:37;99601.91;;;5.28;100.00
47913;BME280;33676;51.006;17.180;2023-12-20T10:01:07;99594.04;;;5.34;100.00
47913;BME280;33676;51.006;17.180;2023-12-20T10:03:39;99589.46;;;5.40;100.00
47913;BME280;33676;51.006;17.180;2023-12-20T10:06:10;99591.84;;;5.46;100.00
47913;BME280;33676;51.006;17.180;2023-12-20T10:08:39;99596.07;;;5.53;100.00
47913;BME280;33676;51.006;17.180;2023-12-20T10:11:07;99589.77;;;5.59;100.00
47913;BME280;33676;51.006;17.180;2023-12-20T10:13:41;99589.95;;;5.64;100.00
47913;BME280;33676;51.006;17.180;2023-12-20T10:16:09;99591.50;;;5.67;100.00
47913;BME280;33676;51.006;17.180;2023-12-20T10:18:39;99594.80;;;5.69;100.00
47913;BME280;33676;51.006;17.180;2023-12-20T10:21:07;99590.30;;;5.71;100.00
47913;BME280;33676;51.006;17.180;2023-12-20T10:23:39;99593.17;;;5.72;100.00
47913;BME280;33676;51.006;17.180;2023-12-20T10:26:08;99596.59;;;5.70;100.00
47913;BME280;33676;51.006;17.180;2023-12-20T10:28:38;99592.06;;;5.68;100.00
47913;BME280;33676;51.006;17.180;2023-12-20T10:31:07;99590.31;;;5.66;100.00
47913;BME280;33676;51.006;17.180;2023-12-20T10:33:36;99596.10;;;5.62;100.00
47913;BME280;33676;51.006;17.180;2023-12-20T10:36:05;99584.31;;;5.60;100.00
47913;BME280;33676;51.006;17.180;2023-12-20T10:38:35;99583.27;;;5.60;100.00
47913;BME280;33676;51.006;17.180;2023-12-20T10:41:07;99581.92;;;5.59;100.00
47913;BME280;33676;51.006;17.180;2023-12-20T10:43:38;99583.69;;;5.59;100.00
47913;BME280;33676;51.006;17.180;2023-12-20T10:46:08;99591.80;;;5.62;100.00
47913;BME280;33676;51.006;17.180;2023-12-20T10:48:39;99590.69;;;5.78;100.00
47913;BME280;33676;51.006;17.180;2023-12-20T10:51:08;99588.02;;;5.96;100.00
47913;BME280;33676;51.006;17.180;2023-12-20T10:53:39;99592.80;;;6.03;100.00
47913;BME280;33676;51.006;17.180;2023-12-20T10:56:12;99594.77;;;6.02;100.00
47913;BME280;33676;51.006;17.180;2023-12-20T10:58:45;99599.39;;;5.97;100.00
47913;BME280;33676;51.006;17.180;2023-12-20T11:01:19;99600.36;;;5.93;100.00
47913;BME280;33676;51.006;17.180;2023-12-20T11:03:54;99589.78;;;5.93;100.00
47913;BME280;33676;51.006;17.180;2023-12-20T11:07:19;99591.70;;;5.96;100.00
47913;BME280;33676;51.006;17.180;2023-12-20T11:09:45;99578.82;;;6.05;100.00
47913;BME280;33676;51.006;17.180;2023-12-20T11:12:24;99573.68;;;6.18;100.00
47913;BME280;33676;51.006;17.180;2023-12-20T11:14:58;99567.77;;;6.40;100.00
47913;BME280;33676;51.006;17.180;2023-12-20T11:17:32;99564.27;;;6.42;100.00
47913;BME280;33676;51.006;17.180;2023-12-20T11:22:31;99561.23;;;6.46;100.00
47913;BME280;33676;51.006;17.180;2023-12-20T11:25:10;99559.20;;;6.52;100.00
47913;BME280;33676;51.006;17.180;2023-12-20T11:27:42;99556.59;;;6.62;100.00
47913;BME280;33676;51.006;17.180;2023-12-20T11:30:16;99555.53;;;6.76;100.00
47913;BME280;33676;51.006;17.180;2023-12-20T11:32:46;99558.01;;;6.90;100.00
47913;BME280;33676;51.006;17.180;2023-12-20T11:37:43;99543.33;;;7.00;100.00
47913;BME280;33676;51.006;17.180;2023-12-20T11:40:16;99542.14;;;7.04;100.00
47913;BME280;33676;51.006;17.180;2023-12-20T11:42:49;99542.61;;;7.09;100.00
47913;BME280;33676;51.006;17.180;2023-12-20T11:45:20;99543.61;;;7.10;100.00
47913;BME280;33676;51.006;17.180;2023-12-20T11:47:51;99537.20;;;7.12;100.00
47913;BME280;33676;51.006;17.180;2023-12-20T11:50:24;99531.16;;;7.16;100.00
47913;BME280;33676;51.006;17.180;2023-12-20T11:52:53;99523.85;;;7.21;100.00
47913;BME280;33676;51.006;17.180;2023-12-20T11:55:25;99526.55;;;7.24;100.00
47913;BME280;33676;51.006;17.180;2023-12-20T11:57:54;99514.00;;;7.27;100.00
47913;BME280;33676;51.006;17.180;2023-12-20T12:00:22;99509.52;;;7.26;100.00
47913;BME280;33676;51.006;17.180;2023-12-20T12:02:58;99503.14;;;7.23;100.00
47913;BME280;33676;51.006;17.180;2023-12-20T12:05:30;99504.31;;;7.17;100.00
47913;BME280;33676;51.006;17.180;2023-12-20T12:07:59;99504.91;;;7.16;100.00
47913;BME280;33676;51.006;17.180;2023-12-20T12:10:31;99504.02;;;7.18;100.00
47913;BME280;33676;51.006;17.180;2023-12-20T12:13:00;99491.12;;;7.22;100.00
47913;BME280;33676;51.006;17.180;2023-12-20T12:15:29;99487.85;;;7.25;100.00
47913;BME280;33676;51.006;17.180;2023-12-20T12:17:57;99481.88;;;7.26;100.00
47913;BME280;33676;51.006;17.180;2023-12-20T12:20:27;99487.07;;;7.24;100.00
47913;BME280;33676;51.006;17.180;2023-12-20T12:23:04;99473.34;;;7.20;100.00
47913;BME280;33676;51.006;17.180;2023-12-20T12:25:35;99477.46;;;7.16;100.00
47913;BME280;33676;51.006;17.180;2023-12-20T12:28:10;99472.17;;;7.13;100.00
47913;BME280;33676;51.006;17.180;2023-12-20T12:30:39;99470.31;;;7.10;100.00
47913;BME280;33676;51.006;17.180;2023-12-20T12:33:21;99459.55;;;7.07;100.00
47913;BME280;33676;51.006;17.180;2023-12-20T12:35:49;99460.20;;;7.06;100.00
47913;BME280;33676;51.006;17.180;2023-12-20T12:38:22;99462.87;;;7.05;100.00
47913;BME280;33676;51.006;17.180;2023-12-20T12:40:52;99461.52;;;7.02;100.00
47913;BME280;33676;51.006;17.180;2023-12-20T12:43:22;99457.43;;;6.98;100.00
47913;BME280;33676;51.006;17.180;2023-12-20T12:45:52;99453.38;;;6.95;100.00
47913;BME280;33676;51.006;17.180;2023-12-20T12:48:21;99446.19;;;6.91;100.00
47913;BME280;33676;51.006;17.180;2023-12-20T12:50:50;99440.02;;;6.88;100.00
47913;BME280;33676;51.006;17.180;2023-12-20T12:53:20;99438.00;;;6.84;100.00
47913;BME280;33676;51.006;17.180;2023-12-20T12:55:48;99440.73;;;6.79;100.00
47913;BME280;33676;51.006;17.180;2023-12-20T12:58:19;99440.93;;;6.72;100.00
47913;BME280;33676;51.006;17.180;2023-12-20T13:00:48;99441.52;;;6.64;100.00
47913;BME280;33676;51.006;17.180;2023-12-20T13:03:21;99449.11;;;6.55;99.91
47913;BME280;33676;51.006;17.180;2023-12-20T13:05:50;99447.73;;;6.57;100.00
47913;BME280;33676;51.006;17.180;2023-12-20T13:08:19;99448.40;;;6.59;100.00
47913;BME280;33676;51.006;17.180;2023-12-20T13:10:47;99452.05;;;6.62;100.00
47913;BME280;33676;51.006;17.180;2023-12-20T13:13:16;99449.20;;;6.65;100.00